Kyokuyo Maru No.51 — JD4090 — position and weather

sailwx.info

Track history (hours):
 
Tides and Currents Weather Stations Pressure Air Temp Water Temp Dewpoint Dewpoint Depression Visibility Wind Speed Wind Dir Waves Ship Positions

Kyokuyo Maru No.51

Last reported at 2018-Jun-21 04:22 UTC. Time now 2018-Jun-22 01:22 UTC.
Position N 33°54' E 135°02'.

Length 75 m; draft 4.8 m.

Type: Cargo ship. MMSI: 431008517.

Date/timePositionNaut miles runAvg speedWind from/ knotsBaromVisibWave heightAir tempDewpointWater temp
2018-Jun-21 04:22N 33°54' E 135°02'712.2
2018-Jun-21 03:46N 34°02' E 135°02'312.1
2018-Jun-21 03:30N 34°05' E 135°03'612.5
2018-Jun-21 03:00N 34°11' E 135°03'611.8
2018-Jun-21 02:30N 34°17' E 135°03'612.5
2018-Jun-21 02:00N 34°22' E 135°07'713.5
2018-Jun-21 01:30N 34°28' E 135°13'713.1
2018-Jun-21 01:00N 34°32' E 135°18'510.3
2018-Jun-21 00:30N 34°36' E 135°23'0 0.0
2018-Jun-20 23:55N 34°36' E 135°23'0 0.0
2018-Jun-20 23:25N 34°36' E 135°23'0 0.1
2018-Jun-20 22:55N 34°36' E 135°23'0 0.0
2018-Jun-20 22:25N 34°36' E 135°23'0 0.0
2018-Jun-20 21:55N 34°36' E 135°23'0 0.0
2018-Jun-20 21:19N 34°36' E 135°23'0 0.0
2018-Jun-20 20:49N 34°36' E 135°23'0 0.0
2018-Jun-20 20:25N 34°36' E 135°23'0 0.0
2018-Jun-20 19:55N 34°36' E 135°23'0 0.0
2018-Jun-20 19:19N 34°36' E 135°23'0 0.0
2018-Jun-20 18:49N 34°36' E 135°23'0 0.0
2018-Jun-20 18:19N 34°36' E 135°23'0 0.0
2018-Jun-20 17:49N 34°36' E 135°23'0 0.0
2018-Jun-20 17:25N 34°36' E 135°23'0 0.0
2018-Jun-20 16:25N 34°36' E 135°23'0 0.0
2018-Jun-20 15:49N 34°36' E 135°23'0 0.0
2018-Jun-20 15:19N 34°36' E 135°23'0 0.0
2018-Jun-20 14:55N 34°36' E 135°23'0 0.0
2018-Jun-20 14:25N 34°36' E 135°23'0 0.1
2018-Jun-20 13:55N 34°36' E 135°23'0 0.1
2018-Jun-20 13:26N 34°36' E 135°23'4 9.4
2018-Jun-20 13:00N 34°35' E 135°18'713.4
2018-Jun-20 12:30N 34°34' E 135°10'714.3
2018-Jun-20 11:59N 34°37' E 135°02'714.3
2018-Jun-20 11:30N 34°37' E 134°53'5 0.3
2018-Jun-19 18:50N 34°42' E 134°50'1 0.3
2018-Jun-19 16:54N 34°42' E 134°50'0 0.0
2018-Jun-19 16:24N 34°42' E 134°50'0 0.9
2018-Jun-19 15:59N 34°42' E 134°50'712.5
2018-Jun-19 15:27N 34°37' E 134°56'715.5
2018-Jun-19 15:00N 34°36' E 135°04'713.4
2018-Jun-19 14:30N 34°29' E 135°03'714.5
2018-Jun-19 14:00N 34°22' E 135°01'714.6
2018-Jun-19 13:30N 34°15' E 134°59'713.5
2018-Jun-19 13:00N 34°08' E 135°00'714.2
2018-Jun-19 12:30N 34°01' E 135°01'714.3
2018-Jun-19 12:00N 33°54' E 135°02'  
2018-Jun-17 07:25N 35°10' E 139°43'712.4
2018-Jun-17 06:53N 35°16' E 139°46'513.3
2018-Jun-17 06:30N 35°20' E 139°43'612.2
2018-Jun-17 06:00N 35°26' E 139°45'713.5
2018-Jun-17 05:30N 35°30' E 139°51'1210.9
2018-Jun-17 04:25N 35°41' E 139°58'0 0.0
2018-Jun-17 03:59N 35°41' E 139°58'  
2018-Jun-14 09:02N 35°32' E 139°54'113.2
2018-Jun-14 09:00N 35°31' E 139°54'613.0
2018-Jun-14 08:30N 35°26' E 139°49'612.6
2018-Jun-14 08:00N 35°21' E 139°45'612.2
2018-Jun-14 07:29N 35°15' E 139°47'1012.7
2018-Jun-14 06:42N 35°05' E 139°43'24111.8
2018-Jun-13 10:15N 33°49' E 135°07'513.0
2018-Jun-13 09:54N 33°52' E 135°03'712.3
2018-Jun-13 09:18N 33°59' E 135°00'412.2
2018-Jun-13 09:00N 34°03' E 134°60'612.7
2018-Jun-13 08:30N 34°09' E 134°59'713.5
2018-Jun-13 08:01N 34°16' E 134°59'612.3
2018-Jun-13 07:31N 34°22' E 134°59'612.6
2018-Jun-13 07:01N 34°28' E 135°01'612.3
2018-Jun-13 06:31N 34°34' E 135°02'610.8
2018-Jun-13 05:57N 34°37' E 134°56'614.2
2018-Jun-13 05:30N 34°40' E 134°49'2 0.1
2018-Jun-12 13:10N 34°42' E 134°49'  
Track history (hours):
 
Tides and Currents Weather Stations Pressure Air Temp Water Temp Dewpoint Dewpoint Depression Visibility Wind Speed Wind Dir Waves Ship Positions

Kyokuyo Maru No.51

Last reported at 2018-Jun-21 04:22 UTC. Time now 2018-Jun-22 01:22 UTC.
Position N 33°54' E 135°02'.

Length 75 m; draft 4.8 m.

Type: Cargo ship. MMSI: 431008517.

Date/timePositionNaut miles runAvg speedWind from/ knotsBaromVisibWave heightAir tempDewpointWater temp
2018-Jun-21 04:22N 33°54' E 135°02'712.2
2018-Jun-21 03:46N 34°02' E 135°02'312.1
2018-Jun-21 03:30N 34°05' E 135°03'612.5
2018-Jun-21 03:00N 34°11' E 135°03'611.8
2018-Jun-21 02:30N 34°17' E 135°03'612.5
2018-Jun-21 02:00N 34°22' E 135°07'713.5
2018-Jun-21 01:30N 34°28' E 135°13'713.1
2018-Jun-21 01:00N 34°32' E 135°18'510.3
2018-Jun-21 00:30N 34°36' E 135°23'0 0.0
2018-Jun-20 23:55N 34°36' E 135°23'0 0.0
2018-Jun-20 23:25N 34°36' E 135°23'0 0.1
2018-Jun-20 22:55N 34°36' E 135°23'0 0.0
2018-Jun-20 22:25N 34°36' E 135°23'0 0.0
2018-Jun-20 21:55N 34°36' E 135°23'0 0.0
2018-Jun-20 21:19N 34°36' E 135°23'0 0.0
2018-Jun-20 20:49N 34°36' E 135°23'0 0.0
2018-Jun-20 20:25N 34°36' E 135°23'0 0.0
2018-Jun-20 19:55N 34°36' E 135°23'0 0.0
2018-Jun-20 19:19N 34°36' E 135°23'0 0.0
2018-Jun-20 18:49N 34°36' E 135°23'0 0.0
2018-Jun-20 18:19N 34°36' E 135°23'0 0.0
2018-Jun-20 17:49N 34°36' E 135°23'0 0.0
2018-Jun-20 17:25N 34°36' E 135°23'0 0.0
2018-Jun-20 16:25N 34°36' E 135°23'0 0.0
2018-Jun-20 15:49N 34°36' E 135°23'0 0.0
2018-Jun-20 15:19N 34°36' E 135°23'0 0.0
2018-Jun-20 14:55N 34°36' E 135°23'0 0.0
2018-Jun-20 14:25N 34°36' E 135°23'0 0.1
2018-Jun-20 13:55N 34°36' E 135°23'0 0.1
2018-Jun-20 13:26N 34°36' E 135°23'4 9.4
2018-Jun-20 13:00N 34°35' E 135°18'713.4
2018-Jun-20 12:30N 34°34' E 135°10'714.3
2018-Jun-20 11:59N 34°37' E 135°02'714.3
2018-Jun-20 11:30N 34°37' E 134°53'5 0.3
2018-Jun-19 18:50N 34°42' E 134°50'1 0.3
2018-Jun-19 16:54N 34°42' E 134°50'0 0.0
2018-Jun-19 16:24N 34°42' E 134°50'0 0.9
2018-Jun-19 15:59N 34°42' E 134°50'712.5
2018-Jun-19 15:27N 34°37' E 134°56'715.5
2018-Jun-19 15:00N 34°36' E 135°04'713.4
2018-Jun-19 14:30N 34°29' E 135°03'714.5
2018-Jun-19 14:00N 34°22' E 135°01'714.6
2018-Jun-19 13:30N 34°15' E 134°59'713.5
2018-Jun-19 13:00N 34°08' E 135°00'714.2
2018-Jun-19 12:30N 34°01' E 135°01'714.3
2018-Jun-19 12:00N 33°54' E 135°02'  
2018-Jun-17 07:25N 35°10' E 139°43'712.4
2018-Jun-17 06:53N 35°16' E 139°46'513.3
2018-Jun-17 06:30N 35°20' E 139°43'612.2
2018-Jun-17 06:00N 35°26' E 139°45'713.5
2018-Jun-17 05:30N 35°30' E 139°51'1210.9
2018-Jun-17 04:25N 35°41' E 139°58'0 0.0
2018-Jun-17 03:59N 35°41' E 139°58'  
2018-Jun-14 09:02N 35°32' E 139°54'113.2
2018-Jun-14 09:00N 35°31' E 139°54'613.0
2018-Jun-14 08:30N 35°26' E 139°49'612.6
2018-Jun-14 08:00N 35°21' E 139°45'612.2
2018-Jun-14 07:29N 35°15' E 139°47'1012.7
2018-Jun-14 06:42N 35°05' E 139°43'24111.8
2018-Jun-13 10:15N 33°49' E 135°07'513.0
2018-Jun-13 09:54N 33°52' E 135°03'712.3
2018-Jun-13 09:18N 33°59' E 135°00'412.2
2018-Jun-13 09:00N 34°03' E 134°60'612.7
2018-Jun-13 08:30N 34°09' E 134°59'713.5
2018-Jun-13 08:01N 34°16' E 134°59'612.3
2018-Jun-13 07:31N 34°22' E 134°59'612.6
2018-Jun-13 07:01N 34°28' E 135°01'612.3
2018-Jun-13 06:31N 34°34' E 135°02'610.8
2018-Jun-13 05:57N 34°37' E 134°56'614.2
2018-Jun-13 05:30N 34°40' E 134°49'2 0.1
2018-Jun-12 13:10N 34°42' E 134°49'  

Dump ship's entire track history